Time;durP1;ratioP1;P1;durP2;ratioP2;P2;SDS_P1;SDS_P2;PMS_P1;PMS_P2;Temp;Humidity;BMP_temperature;BMP_pressure;BME280_temperature;BME280_humidity;BME280_pressure;Samples;Min_cycle;Max_cycle;Signal;HPM_P1;HPM_P2
2024/03/24 00:00:18;;;;;;;23.17;4.30;;;;;;;13.93;46.98;99717.88;5083870;28;20937;-81
2024/03/24 00:03:12;;;;;;;6.05;3.85;;;;;;;13.83;48.02;99726.66;5092342;28;20269;-82
2024/03/24 00:06:04;;;;;;;6.70;3.20;;;;;;;13.74;47.52;99739.78;5094220;28;20054;-85
2024/03/24 00:08:56;;;;;;;8.45;3.20;;;;;;;13.68;45.86;99750.19;5084214;28;20054;-82
2024/03/24 00:11:51;;;;;;;4.65;2.83;;;;;;;13.63;46.11;99766.06;5084923;28;20055;-82
2024/03/24 00:14:43;;;;;;;9.87;3.63;;;;;;;13.61;45.12;99757.47;5083272;28;20059;-83
2024/03/24 00:17:37;;;;;;;5.53;2.75;;;;;;;13.59;45.06;99754.28;5084383;28;20051;-81
2024/03/24 00:20:30;;;;;;;7.18;2.90;;;;;;;13.59;45.43;99757.03;5084175;28;20043;-82
2024/03/24 00:23:20;;;;;;;4.05;1.90;;;;;;;13.61;43.56;99760.19;5099262;28;20062;-83
2024/03/24 00:26:14;;;;;;;5.50;2.30;;;;;;;13.60;43.25;99759.41;5078950;28;20051;-82
2024/03/24 00:29:06;;;;;;;7.13;4.07;;;;;;;13.48;45.86;99767.72;5084174;28;20532;-83
2024/03/24 00:32:01;;;;;;;8.57;4.50;;;;;;;13.44;48.22;99768.78;5099203;28;20063;-82
2024/03/24 00:34:54;;;;;;;;;;;;;;;13.41;47.23;99762.09;5083555;28;20524;-82
2024/03/24 00:37:48;;;;;;;13.55;8.48;;;;;;;13.37;49.83;99766.69;5099090;28;19912;-85
2024/03/24 00:40:43;;;;;;;14.00;5.37;;;;;;;13.31;50.07;99759.91;5083892;28;20043;-83
2024/03/24 00:43:38;;;;;;;9.23;4.97;;;;;;;13.28;50.54;99766.91;5081342;28;20043;-83
2024/03/24 00:46:32;;;;;;;9.90;5.33;;;;;;;13.29;51.09;99762.22;5078294;28;20055;-84
2024/03/24 00:49:26;;;;;;;7.07;4.30;;;;;;;13.41;51.29;99764.81;5084477;28;20055;-83
2024/03/24 00:52:18;;;;;;;9.53;4.87;;;;;;;13.32;51.94;99766.16;5078224;28;20051;-83
2024/03/24 00:55:13;;;;;;;10.77;6.00;;;;;;;13.31;50.83;99767.34;5083138;28;20059;-84
2024/03/24 00:58:08;;;;;;;14.55;9.70;;;;;;;13.32;49.50;99769.69;5085829;28;20043;-83
2024/03/24 01:00:56;;;;;;;33.03;18.42;;;;;;;13.24;46.61;99776.16;5102258;28;20043;-85
2024/03/24 01:03:50;;;;;;;13.02;6.50;;;;;;;13.29;47.41;99778.63;5088806;28;20044;-82
2024/03/24 01:06:45;;;;;;;9.18;6.28;;;;;;;13.25;48.20;99777.75;5082489;28;20059;-84
2024/03/24 01:09:37;;;;;;;9.52;4.95;;;;;;;13.19;48.91;99776.44;5089283;28;20066;-84
2024/03/24 01:12:29;;;;;;;7.70;5.15;;;;;;;13.19;49.41;99779.97;5101215;28;20046;-83
2024/03/24 01:15:21;;;;;;;14.90;6.25;;;;;;;13.26;49.87;99782.84;5101480;28;20411;-84
2024/03/24 01:18:11;;;;;;;18.55;9.30;;;;;;;13.38;49.92;99797.53;5089418;28;20051;-82
2024/03/24 01:21:03;;;;;;;10.68;8.27;;;;;;;13.40;49.04;99793.31;5088339;28;20642;-83
2024/03/24 01:23:58;;;;;;;12.13;7.63;;;;;;;13.40;49.35;99796.03;5098041;28;20043;-84
2024/03/24 01:26:52;;;;;;;11.18;6.00;;;;;;;13.43;49.76;99799.97;5087880;28;20047;-82
2024/03/24 01:29:44;;;;;;;13.70;6.63;;;;;;;13.27;50.75;99792.63;5087362;28;20046;-83
2024/03/24 01:32:44;;;;;;;9.07;5.93;;;;;;;13.20;51.67;99802.59;5086471;28;20047;-82
2024/03/24 01:35:36;;;;;;;17.00;7.07;;;;;;;13.14;51.94;99793.88;5083552;28;20417;-83
2024/03/24 01:38:31;;;;;;;10.70;6.35;;;;;;;13.14;51.81;99801.28;5081710;28;20046;-82
2024/03/24 01:41:26;;;;;;;12.93;6.30;;;;;;;13.03;52.02;99802.94;5085039;28;20051;-82
2024/03/24 01:44:15;;;;;;;10.25;6.60;;;;;;;12.96;51.82;99810.94;5101745;28;20043;-81
2024/03/24 01:47:10;;;;;;;12.50;7.22;;;;;;;13.01;51.87;99806.00;5086250;28;20039;-81
2024/03/24 01:50:04;;;;;;;13.70;7.60;;;;;;;13.01;51.98;99807.94;5100911;28;20051;-83
2024/03/24 01:52:54;;;;;;;9.95;4.25;;;;;;;13.05;49.30;99817.81;5081615;28;20047;-82
2024/03/24 01:55:46;;;;;;;19.27;5.75;;;;;;;13.06;49.48;99816.66;5097304;28;20417;-82
2024/03/24 01:58:41;;;;;;;20.02;6.38;;;;;;;13.05;49.52;99812.34;5085692;28;20039;-82
2024/03/24 02:01:36;;;;;;;9.85;5.05;;;;;;;13.02;49.48;99813.03;5087427;28;20051;-82
2024/03/24 02:04:31;;;;;;;10.13;6.15;;;;;;;12.99;49.55;99807.50;5085869;28;20039;-80
2024/03/24 02:07:24;;;;;;;9.93;5.28;;;;;;;13.04;48.18;99812.69;5101213;28;20058;-81
2024/03/24 02:10:18;;;;;;;11.73;4.97;;;;;;;13.12;46.79;99817.19;5085468;28;20047;-81
2024/03/24 02:13:16;;;;;;;7.40;4.05;;;;;;;13.21;46.73;99821.31;5082540;28;20089;-82
2024/03/24 02:16:10;;;;;;;12.35;4.78;;;;;;;13.17;46.35;99815.00;5081850;28;20410;-81
2024/03/24 02:19:06;;;;;;;7.25;4.50;;;;;;;13.11;46.18;99821.03;5083947;28;20043;-82
2024/03/24 02:22:00;;;;;;;4.13;2.80;;;;;;;13.08;45.44;99829.94;5096716;28;20408;-82
2024/03/24 02:24:55;;;;;;;10.93;4.25;;;;;;;12.92;45.42;99829.16;5084700;28;20516;-83
2024/03/24 02:27:50;;;;;;;8.75;4.55;;;;;;;12.93;45.76;99822.56;5097712;28;20512;-82
2024/03/24 02:30:44;;;;;;;7.68;3.58;;;;;;;12.86;46.25;99823.97;5094850;28;20051;-84
2024/03/24 02:33:33;;;;;;;6.90;3.33;;;;;;;12.75;47.13;99819.38;5099077;28;20050;-81
2024/03/24 02:36:25;;;;;;;6.93;4.18;;;;;;;12.64;47.17;99830.03;5095571;28;20047;-82
2024/03/24 02:39:20;;;;;;;6.22;4.13;;;;;;;12.66;46.63;99822.28;5101857;28;20051;-85
2024/03/24 02:42:09;;;;;;;5.43;3.55;;;;;;;12.60;46.56;99823.69;5084344;28;20047;-83
2024/03/24 02:45:05;;;;;;;5.18;3.33;;;;;;;12.68;44.78;99814.56;5084628;28;20535;-84
2024/03/24 02:48:00;;;;;;;5.15;2.78;;;;;;;12.76;44.75;99815.50;5101271;28;20424;-83
2024/03/24 02:50:55;;;;;;;6.38;3.17;;;;;;;12.71;44.06;99822.03;5084135;28;20547;-82
2024/03/24 02:53:49;;;;;;;5.30;2.40;;;;;;;12.64;43.27;99819.13;5086714;28;20047;-82
2024/03/24 02:56:44;;;;;;;5.07;2.25;;;;;;;12.58;42.96;99825.19;5080339;28;20292;-84
2024/03/24 02:59:38;;;;;;;5.93;2.92;;;;;;;12.54;43.97;99830.56;5080739;28;20047;-82
2024/03/24 03:02:33;;;;;;;1.70;1.17;;;;;;;12.55;39.11;99821.22;5085879;28;20047;-82
2024/03/24 03:05:28;;;;;;;3.65;1.08;;;;;;;12.76;37.60;99821.75;5082828;28;20551;-83
2024/03/24 03:08:22;;;;;;;2.22;0.70;;;;;;;12.72;36.15;99814.63;5095009;28;20412;-83
2024/03/24 03:11:14;;;;;;;2.57;0.70;;;;;;;12.82;34.45;99819.56;5085252;28;20055;-82
2024/03/24 03:14:09;;;;;;;1.17;0.75;;;;;;;12.88;35.72;99833.75;5085497;28;20269;-83
2024/03/24 03:17:04;;;;;;;0.73;0.50;;;;;;;12.95;35.92;99839.38;5100306;28;20039;-81
2024/03/24 03:19:59;;;;;;;3.70;0.70;;;;;;;12.98;35.21;99835.94;5084968;28;20401;-81
2024/03/24 03:22:53;;;;;;;1.03;0.60;;;;;;;12.95;34.81;99836.66;5093755;28;20516;-82
2024/03/24 03:25:43;;;;;;;0.28;0.28;;;;;;;12.85;35.67;99838.75;5080495;28;20293;-82
2024/03/24 03:28:38;;;;;;;1.25;0.60;;;;;;;12.88;35.28;99839.19;5084422;28;20047;-82
2024/03/24 03:31:32;;;;;;;0.70;0.40;;;;;;;12.84;34.49;99850.03;5083342;28;20043;-81
2024/03/24 03:34:30;;;;;;;3.27;0.40;;;;;;;12.88;34.21;99847.38;5099296;28;20368;-83
2024/03/24 03:37:22;;;;;;;1.27;0.75;;;;;;;12.88;35.98;99858.28;5099536;28;20531;-82
2024/03/24 03:40:17;;;;;;;1.83;0.63;;;;;;;12.81;35.99;99853.44;5085007;28;20436;-81
2024/03/24 03:43:11;;;;;;;0.67;0.40;;;;;;;12.84;35.85;99861.75;5095867;28;20063;-83
2024/03/24 03:46:06;;;;;;;0.90;0.30;;;;;;;12.88;36.33;99866.47;5079204;28;20281;-84
2024/03/24 03:49:01;;;;;;;0.52;0.40;;;;;;;12.84;35.58;99874.59;5082479;28;20043;-83
2024/03/24 03:51:56;;;;;;;3.22;1.20;;;;;;;12.77;35.61;99877.13;5081111;28;20516;-84
2024/03/24 03:54:50;;;;;;;1.48;0.52;;;;;;;12.69;35.49;99883.53;5084665;28;20039;-84
2024/03/24 03:57:45;;;;;;;1.30;0.63;;;;;;;12.65;36.23;99880.69;5099649;28;20047;-82
2024/03/24 04:00:37;;;;;;;1.40;0.50;;;;;;;12.54;36.54;99887.81;5084141;28;20051;-81
2024/03/24 04:03:32;;;;;;;2.00;0.70;;;;;;;12.55;37.96;99897.56;5084258;28;20614;-82
2024/03/24 04:06:26;;;;;;;4.77;0.67;;;;;;;12.48;37.19;99891.13;5079112;28;20039;-81
2024/03/24 04:09:21;;;;;;;0.87;0.80;;;;;;;12.41;37.72;99892.53;5084982;28;20047;-83
2024/03/24 04:12:13;;;;;;;0.77;0.60;;;;;;;12.47;37.64;99882.16;5099663;28;20039;-82
2024/03/24 04:15:07;;;;;;;5.13;1.30;;;;;;;12.44;38.85;99893.78;5082559;28;20047;-83
2024/03/24 04:18:02;;;;;;;2.55;1.50;;;;;;;12.32;39.87;99896.53;5084288;28;20047;-82
2024/03/24 04:20:56;;;;;;;2.85;1.10;;;;;;;12.28;39.57;99896.44;5099030;28;20047;-81
2024/03/24 04:23:48;;;;;;;3.80;1.03;;;;;;;12.23;40.07;99895.91;5085182;28;20043;-83
2024/03/24 04:26:43;;;;;;;1.58;0.90;;;;;;;12.21;40.40;99890.00;5077556;28;20269;-81
2024/03/24 04:29:39;;;;;;;3.35;1.33;;;;;;;12.14;41.01;99887.06;5083465;28;20043;-80
2024/03/24 04:32:34;;;;;;;6.18;1.08;;;;;;;12.08;41.46;99899.34;5084044;28;20409;-82
2024/03/24 04:35:28;;;;;;;2.45;1.10;;;;;;;12.04;42.10;99898.47;5081612;28;20066;-82
2024/03/24 04:38:23;;;;;;;1.20;0.80;;;;;;;12.03;42.41;99899.59;5101706;28;20575;-81
2024/03/24 04:41:18;;;;;;;3.00;1.27;;;;;;;12.09;42.62;99899.00;5103245;28;20635;-81
2024/03/24 04:44:13;;;;;;;4.68;1.70;;;;;;;12.09;43.42;99898.22;5088118;28;20420;-84
2024/03/24 04:47:07;;;;;;;5.43;2.27;;;;;;;12.07;44.16;99890.38;5103020;28;20055;-83
2024/03/24 04:50:04;;;;;;;1.55;1.08;;;;;;;12.03;44.50;99889.50;5088138;28;20273;-83
2024/03/24 04:52:57;;;;;;;5.38;1.80;;;;;;;12.07;44.70;99904.00;5088369;28;20047;-83
2024/03/24 04:55:52;;;;;;;4.35;1.75;;;;;;;11.89;45.13;99902.66;5098896;28;20535;-82
2024/03/24 04:58:46;;;;;;;2.20;1.30;;;;;;;11.78;45.26;99913.28;5088193;28;20051;-83
2024/03/24 05:01:41;;;;;;;3.60;2.17;;;;;;;11.71;45.54;99907.56;5087803;28;20055;-81
2024/03/24 05:04:35;;;;;;;3.20;1.65;;;;;;;11.69;45.01;99909.81;5089968;28;20303;-83
2024/03/24 05:07:30;;;;;;;10.00;1.47;;;;;;;11.55;44.92;99910.19;5104540;28;20047;-80
2024/03/24 05:10:27;;;;;;;10.68;1.80;;;;;;;11.46;44.96;99914.16;5079706;28;20051;-84
2024/03/24 05:13:22;;;;;;;7.30;1.65;;;;;;;11.47;44.94;99921.19;5087467;28;20047;-81
2024/03/24 05:16:10;;;;;;;4.30;2.07;;;;;;;11.47;45.76;99934.81;5096936;28;20059;-81
2024/03/24 05:19:04;;;;;;;4.68;2.10;;;;;;;11.51;46.04;99935.72;5102426;28;20273;-80
2024/03/24 05:21:59;;;;;;;3.08;1.50;;;;;;;11.46;46.64;99935.94;5087251;28;20047;-80
2024/03/24 05:24:54;;;;;;;4.43;2.03;;;;;;;11.50;46.22;99945.00;5085631;28;20039;-81
2024/03/24 05:27:48;;;;;;;3.80;2.50;;;;;;;11.49;46.21;99937.97;5087070;28;20051;-81
2024/03/24 05:30:40;;;;;;;14.25;3.33;;;;;;;11.43;46.62;99944.75;5086921;28;20539;-80
2024/03/24 05:33:35;;;;;;;4.47;2.35;;;;;;;11.45;46.98;99948.75;5102113;28;20050;-81
2024/03/24 05:36:29;;;;;;;11.57;3.47;;;;;;;11.56;48.32;99949.09;5095967;28;20520;-81
2024/03/24 05:39:21;;;;;;;16.60;2.80;;;;;;;11.53;47.88;99955.19;5087147;28;20043;-82
2024/03/24 05:42:13;;;;;;;9.20;3.00;;;;;;;11.56;47.90;99960.00;5102094;28;20766;-82
2024/03/24 05:45:11;;;;;;;9.00;3.63;;;;;;;11.51;48.00;99957.50;5085208;28;20036;-83
2024/03/24 05:48:05;;;;;;;6.40;3.47;;;;;;;11.54;47.99;99964.97;5085713;28;20043;-83
2024/03/24 05:51:03;;;;;;;4.75;2.67;;;;;;;11.65;48.31;99966.09;5079581;28;20063;-82
2024/03/24 05:53:58;;;;;;;6.82;3.72;;;;;;;11.69;48.36;99961.56;5096341;28;20046;-81
2024/03/24 05:56:46;;;;;;;4.90;3.17;;;;;;;11.71;48.71;99970.19;5089945;28;20055;-82
2024/03/24 05:59:40;;;;;;;6.07;2.40;;;;;;;11.89;48.40;99973.50;5098773;28;20281;-83
2024/03/24 06:02:36;;;;;;;8.50;3.40;;;;;;;11.95;48.60;99966.69;5100556;28;20051;-81
2024/03/24 06:05:30;;;;;;;11.63;4.00;;;;;;;11.91;49.28;99969.31;5093820;28;20043;-81
2024/03/24 06:08:27;;;;;;;6.55;3.60;;;;;;;11.86;49.75;99969.53;5097397;28;20248;-83
2024/03/24 06:11:21;;;;;;;9.63;3.93;;;;;;;11.86;50.02;99972.28;5096156;28;20047;-83
2024/03/24 06:14:16;;;;;;;9.13;3.83;;;;;;;11.90;50.55;99975.88;5101085;28;20634;-84
2024/03/24 06:17:11;;;;;;;7.68;4.20;;;;;;;11.85;50.72;99991.66;5096538;28;20289;-81
2024/03/24 06:20:06;;;;;;;7.57;4.70;;;;;;;11.88;51.00;99994.53;5094612;28;20044;-88
2024/03/24 06:22:58;;;;;;;20.83;5.00;;;;;;;12.09;50.96;99993.59;5100591;28;20043;-84
2024/03/24 06:25:52;;;;;;;9.02;4.43;;;;;;;12.19;50.47;99993.91;5110256;28;20047;-84
2024/03/24 06:28:44;;;;;;;9.05;4.80;;;;;;;12.15;50.67;99993.00;5101430;28;20047;-84
2024/03/24 06:31:39;;;;;;;9.37;4.17;;;;;;;12.09;50.91;99988.91;5099956;28;20416;-85
2024/03/24 06:34:34;;;;;;;7.30;3.63;;;;;;;12.12;48.88;99993.69;5114026;28;20047;-84
2024/03/24 06:37:28;;;;;;;4.53;2.40;;;;;;;12.11;47.38;99991.31;5100099;28;20273;-84
2024/03/24 06:40:20;;;;;;;4.27;2.23;;;;;;;11.89;47.36;99996.09;5099805;28;20392;-84
2024/03/24 06:43:19;;;;;;;4.90;2.00;;;;;;;12.03;47.37;99997.69;5101183;28;20404;-85
2024/03/24 06:46:13;;;;;;;6.00;2.30;;;;;;;12.09;47.92;99996.31;5094843;28;20039;-83
2024/03/24 06:49:08;;;;;;;3.73;1.63;;;;;;;12.18;47.93;100007.91;5099988;28;20051;-84
2024/03/24 06:52:03;;;;;;;7.00;1.88;;;;;;;12.24;48.71;100017.44;5095024;28;20042;-85
2024/03/24 06:54:57;;;;;;;3.13;1.77;;;;;;;12.05;50.10;100009.03;5095363;28;20047;-85
2024/03/24 06:57:52;;;;;;;4.75;1.48;;;;;;;12.23;50.83;100010.38;5099920;28;20623;-84
2024/03/24 07:00:44;;;;;;;2.63;1.55;;;;;;;12.15;52.21;100011.28;5096093;28;20047;-86
2024/03/24 07:03:38;;;;;;;3.40;1.80;;;;;;;12.20;53.08;100008.31;5108504;28;20047;-85
2024/03/24 07:06:30;;;;;;;1.20;0.90;;;;;;;12.38;52.93;100013.19;5093424;28;20405;-83
2024/03/24 07:09:25;;;;;;;9.55;1.23;;;;;;;12.31;53.72;100017.63;5099636;28;20046;-84
2024/03/24 07:12:20;;;;;;;2.57;0.97;;;;;;;12.34;53.17;100022.41;5092748;28;20043;-84
2024/03/24 07:15:14;;;;;;;4.63;0.90;;;;;;;12.46;53.48;100030.53;5097844;28;20292;-84
2024/03/24 07:18:06;;;;;;;3.60;1.17;;;;;;;12.40;53.11;100027.25;5099149;28;20281;-82
2024/03/24 07:21:07;;;;;;;8.50;1.15;;;;;;;12.59;52.26;100034.84;5098894;28;20039;-83
2024/03/24 07:24:02;;;;;;;8.60;0.70;;;;;;;12.45;52.22;100031.69;5099657;28;20063;-83
2024/03/24 07:26:56;;;;;;;14.77;1.10;;;;;;;12.51;51.91;100030.31;5098930;28;20036;-83
2024/03/24 07:29:51;;;;;;;3.70;0.93;;;;;;;12.69;51.65;100039.03;5098933;28;20636;-83
2024/03/24 07:32:45;;;;;;;2.67;1.20;;;;;;;12.55;52.42;100052.22;5100188;28;20047;-83
2024/03/24 07:35:37;;;;;;;3.53;0.87;;;;;;;12.46;53.00;100044.19;5075057;28;20040;-84
2024/03/24 07:38:32;;;;;;;2.00;0.52;;;;;;;12.58;52.54;100046.91;5079827;28;20060;-83
2024/03/24 07:41:24;;;;;;;0.80;0.43;;;;;;;12.57;51.88;100053.47;5093283;28;20128;-82
2024/03/24 07:44:19;;;;;;;11.45;1.02;;;;;;;12.57;52.84;100047.22;5092610;28;20282;-84
2024/03/24 07:47:14;;;;;;;22.08;1.38;;;;;;;12.62;53.03;100057.91;5079260;28;20029;-83
2024/03/24 07:50:08;;;;;;;17.57;1.80;;;;;;;12.55;53.50;100055.75;5078439;28;20037;-83
2024/03/24 07:53:03;;;;;;;21.33;1.50;;;;;;;12.66;53.02;100056.06;5079371;28;20267;-84
2024/03/24 07:55:57;;;;;;;4.13;1.00;;;;;;;12.65;53.29;100057.19;5104937;27;20039;-84
2024/03/24 07:58:49;;;;;;;0.80;0.40;;;;;;;12.68;53.90;100070.97;5106046;28;20039;-83
2024/03/24 08:01:41;;;;;;;7.78;1.10;;;;;;;12.71;54.93;100067.53;5114426;28;20279;-82
2024/03/24 08:04:36;;;;;;;130.18;8.00;;;;;;;12.62;55.27;100055.97;5104479;28;20110;-84
2024/03/24 08:07:30;;;;;;;4.30;0.87;;;;;;;12.79;55.48;100068.56;5105398;28;20039;-83
2024/03/24 08:10:25;;;;;;;2.35;0.70;;;;;;;12.70;55.98;100062.41;5104474;28;20273;-84
2024/03/24 08:13:18;;;;;;;0.82;0.70;;;;;;;12.85;55.71;100065.22;5102934;28;20063;-86
2024/03/24 08:16:12;;;;;;;11.43;1.35;;;;;;;12.64;55.78;100056.44;5100099;28;20062;-83
2024/03/24 08:19:04;;;;;;;2.20;1.05;;;;;;;12.83;55.54;100061.25;5118888;28;20044;-85
2024/03/24 08:21:56;;;;;;;6.53;1.10;;;;;;;12.81;55.86;100069.78;5101065;28;20055;-85
2024/03/24 08:24:50;;;;;;;4.55;1.00;;;;;;;13.07;54.75;100057.63;5089146;28;20397;-85
2024/03/24 08:27:37;;;;;;;1.65;1.13;;;;;;;13.10;53.95;100063.22;5104999;28;20046;-83
2024/03/24 08:30:29;;;;;;;8.45;1.63;;;;;;;13.21;54.16;100066.25;5095674;28;20107;-85
2024/03/24 08:33:24;;;;;;;3.83;0.60;;;;;;;13.17;53.65;100060.69;5084414;28;20047;-85
2024/03/24 08:36:16;;;;;;;10.63;2.10;;;;;;;13.28;53.28;100064.50;5094345;28;20044;-83
2024/03/24 08:39:10;;;;;;;1.35;0.60;;;;;;;13.45;52.73;100074.34;5099926;28;20055;-84
2024/03/24 08:42:04;;;;;;;5.93;0.73;;;;;;;13.83;52.20;100068.28;5084728;28;20413;-85
2024/03/24 08:44:57;;;;;;;5.38;1.17;;;;;;;13.87;51.28;100065.63;5083158;28;20047;-85
2024/03/24 08:47:51;;;;;;;5.53;1.20;;;;;;;13.97;51.42;100067.81;5084225;28;20043;-82
2024/03/24 08:50:46;;;;;;;2.63;1.33;;;;;;;14.16;50.97;100064.38;5083614;28;20047;-84
2024/03/24 08:53:46;;;;;;;6.97;1.00;;;;;;;14.21;50.17;100066.84;5080832;28;20288;-84
2024/03/24 08:56:41;;;;;;;2.80;0.70;;;;;;;14.22;49.59;100069.22;5078638;28;20047;-83
2024/03/24 08:59:35;;;;;;;1.73;0.90;;;;;;;13.98;50.40;100062.00;5097262;28;20051;-84
2024/03/24 09:02:30;;;;;;;3.67;0.60;;;;;;;14.17;51.31;100057.78;5077943;28;20119;-84
2024/03/24 09:05:24;;;;;;;3.00;0.87;;;;;;;14.36;50.24;100066.03;5086301;28;20038;-83
2024/03/24 09:08:19;;;;;;;41.30;2.70;;;;;;;14.43;48.16;100058.78;5092279;28;20047;-84
2024/03/24 09:11:13;;;;;;;2.92;0.73;;;;;;;14.36;47.76;100061.38;5083422;28;20040;-82
2024/03/24 09:14:08;;;;;;;6.57;0.50;;;;;;;14.56;46.23;100059.47;5094972;28;20051;-84
2024/03/24 09:17:03;;;;;;;3.47;0.82;;;;;;;14.81;45.87;100060.81;5084690;28;20063;-84
2024/03/24 09:19:52;;;;;;;1.67;0.73;;;;;;;14.80;45.48;100055.69;5098937;28;20059;-83
2024/03/24 09:22:44;;;;;;;1.33;0.55;;;;;;;15.10;45.57;100062.16;5107251;28;20122;-85
2024/03/24 09:25:37;;;;;;;3.53;0.90;;;;;;;15.12;45.39;100062.59;5099548;28;20043;-82
2024/03/24 09:28:32;;;;;;;4.35;0.65;;;;;;;15.26;44.86;100060.13;5085592;28;20055;-84
2024/03/24 09:31:26;;;;;;;2.42;0.65;;;;;;;15.22;44.32;100059.28;5088148;28;20054;-82
2024/03/24 09:34:24;;;;;;;8.83;0.60;;;;;;;15.35;43.55;100063.44;5111012;28;20539;-82
2024/03/24 09:37:18;;;;;;;2.22;0.47;;;;;;;15.72;42.98;100060.22;5108155;28;20059;-85
2024/03/24 09:40:14;;;;;;;3.83;0.70;;;;;;;15.64;42.72;100064.00;5114538;28;20039;-84
2024/03/24 09:43:06;;;;;;;5.05;0.75;;;;;;;15.60;42.26;100055.69;5109299;28;20646;-84
2024/03/24 09:45:58;;;;;;;2.92;0.70;;;;;;;15.52;41.12;100051.25;5103431;28;20416;-82
2024/03/24 09:48:54;;;;;;;1.23;0.60;;;;;;;15.58;40.62;100049.00;5108409;28;20424;-84
2024/03/24 09:51:49;;;;;;;1.98;0.40;;;;;;;15.93;40.54;100040.59;5060475;28;20043;-85
2024/03/24 09:54:44;;;;;;;2.50;0.47;;;;;;;15.91;40.40;100051.13;5061317;28;20044;-84
2024/03/24 09:57:40;;;;;;;1.48;0.50;;;;;;;16.25;39.21;100039.13;5082309;28;20041;-83
2024/03/24 10:00:30;;;;;;;2.58;1.10;;;;;;;16.47;39.36;100034.72;5076410;28;20048;-85
2024/03/24 10:03:25;;;;;;;6.40;0.73;;;;;;;16.55;40.39;100031.72;5069255;28;20047;-81
2024/03/24 10:06:18;;;;;;;5.15;1.10;;;;;;;16.11;39.99;100036.16;5076629;28;20044;-81
2024/03/24 10:09:13;;;;;;;0.85;0.35;;;;;;;16.52;39.10;100032.44;5061022;28;20048;-82
2024/03/24 10:12:19;;;;;;;0.73;0.32;;;;;;;16.66;38.30;100040.09;5071947;28;20043;-82
2024/03/24 10:15:26;;;;;;;3.70;0.60;;;;;;;16.86;37.30;100036.06;5100206;28;20051;-81
2024/03/24 10:18:24;;;;;;;1.20;1.02;;;;;;;16.93;37.24;100027.91;5084810;28;20055;-83
2024/03/24 10:21:17;;;;;;;1.27;0.40;;;;;;;17.11;39.26;100022.63;5086546;28;20051;-84
2024/03/24 10:24:12;;;;;;;4.72;0.52;;;;;;;17.05;38.91;100016.69;5087505;28;20603;-83
2024/03/24 10:27:07;;;;;;;3.40;0.98;;;;;;;17.23;38.79;100011.34;5088057;28;20043;-83
2024/03/24 10:30:02;;;;;;;3.45;0.60;;;;;;;17.16;37.66;100016.00;5087111;28;20047;-83
2024/03/24 10:32:56;;;;;;;2.15;0.60;;;;;;;17.41;36.62;100014.28;5101048;28;20039;-82
2024/03/24 10:35:54;;;;;;;1.30;0.40;;;;;;;17.41;36.26;100011.53;5083344;28;20067;-83
2024/03/24 10:38:49;;;;;;;1.20;0.50;;;;;;;17.50;36.10;99998.28;5101724;28;20421;-82
2024/03/24 10:41:46;;;;;;;0.85;0.40;;;;;;;17.63;36.50;100001.53;5101647;28;20047;-82
2024/03/24 10:44:41;;;;;;;1.83;0.65;;;;;;;17.59;37.33;99993.28;5086262;28;20043;-83
2024/03/24 10:47:36;;;;;;;7.80;0.60;;;;;;;17.73;37.54;99993.38;5085041;28;20043;-82
2024/03/24 10:50:29;;;;;;;;;;;;;;;17.67;37.31;99997.69;5086539;28;20043;-84
2024/03/24 10:53:26;;;;;;;1.95;0.68;;;;;;;17.85;37.57;99992.31;5086504;28;19912;-82
2024/03/24 10:56:21;;;;;;;2.50;1.00;;;;;;;17.78;36.71;99993.03;5080132;28;20051;-84
2024/03/24 10:59:13;;;;;;;2.45;0.68;;;;;;;18.03;37.67;99978.69;5085433;28;20516;-84
2024/03/24 11:02:14;;;;;;;3.65;1.27;;;;;;;18.15;37.94;99981.09;5100439;28;20527;-82
2024/03/24 11:05:09;;;;;;;3.67;1.10;;;;;;;18.08;37.11;99981.84;5083850;28;20055;-83
2024/03/24 11:08:05;;;;;;;1.70;0.60;;;;;;;18.38;36.58;99984.41;5086011;28;20114;-83
2024/03/24 11:10:54;;;;;;;4.72;1.00;;;;;;;18.26;37.04;99980.00;5084582;28;20043;-83
2024/03/24 11:13:47;;;;;;;0.93;0.60;;;;;;;18.53;36.27;99977.00;5085154;28;20216;-83
2024/03/24 11:16:42;;;;;;;3.22;1.42;;;;;;;18.26;35.78;99979.22;5078804;28;20520;-82
2024/03/24 11:19:37;;;;;;;2.60;0.95;;;;;;;18.49;36.29;99990.72;5084932;28;20547;-82
2024/03/24 11:22:41;;;;;;;1.58;0.70;;;;;;;18.36;36.56;99982.03;5100024;28;20051;-83
2024/03/24 11:25:39;;;;;;;3.53;0.90;;;;;;;18.64;36.72;99977.88;5081791;28;20046;-82
2024/03/24 11:28:53;;;;;;;1.25;0.60;;;;;;;18.61;36.51;99976.66;5099505;28;20523;-83
2024/03/24 11:31:45;;;;;;;3.17;0.70;;;;;;;18.37;36.77;99975.34;5080276;28;20050;-82
2024/03/24 11:34:50;;;;;;;3.40;0.80;;;;;;;18.67;36.49;99971.56;5084208;28;20051;-82
2024/03/24 11:37:47;;;;;;;;;;;;;;;18.80;36.16;99970.81;5081833;28;20047;-81
2024/03/24 11:40:42;;;;;;;4.95;0.80;;;;;;;18.70;36.41;99965.28;5093306;28;19938;-80
2024/03/24 11:43:37;;;;;;;2.25;0.50;;;;;;;18.49;36.45;99954.94;5084495;28;20043;-81
2024/03/24 11:46:37;;;;;;;1.42;0.60;;;;;;;18.69;36.15;99953.47;5092711;28;20496;-84
2024/03/24 11:49:35;;;;;;;3.78;0.77;;;;;;;18.58;36.37;99947.16;5084351;28;20039;-82
2024/03/24 11:52:29;;;;;;;29.67;2.38;;;;;;;18.78;35.09;99948.41;5093052;28;20527;-82
2024/03/24 11:55:22;;;;;;;1.83;0.80;;;;;;;19.02;35.31;99941.38;5092860;28;20051;-83
2024/03/24 11:58:12;;;;;;;1.77;0.85;;;;;;;19.02;34.29;99929.56;5096681;28;20051;-81
2024/03/24 12:01:09;;;;;;;2.13;0.68;;;;;;;19.30;35.16;99923.31;5098747;28;20397;-83
2024/03/24 12:04:04;;;;;;;7.32;2.35;;;;;;;19.37;34.55;99924.09;5084143;28;20067;-82
2024/03/24 12:06:56;;;;;;;9.90;1.20;;;;;;;19.18;33.45;99918.97;5100244;28;20052;-81
2024/03/24 12:09:54;;;;;;;3.67;1.05;;;;;;;18.72;34.03;99907.84;5098688;28;20523;-81
2024/03/24 12:12:46;;;;;;;1.77;0.63;;;;;;;18.85;33.68;99905.50;5081412;28;20047;-81
2024/03/24 12:15:39;;;;;;;3.33;1.00;;;;;;;18.45;33.96;99904.59;5080244;28;20520;-81
2024/03/24 12:18:33;;;;;;;2.40;0.88;;;;;;;18.32;34.32;99900.59;5098132;28;20047;-81
2024/03/24 12:21:28;;;;;;;2.75;1.20;;;;;;;18.75;33.36;99905.09;5085388;28;20054;-81
2024/03/24 12:24:20;;;;;;;3.67;1.02;;;;;;;18.98;33.15;99903.97;5083945;28;20047;-82
2024/03/24 12:27:10;;;;;;;2.72;1.48;;;;;;;19.14;32.69;99902.41;5083567;28;20043;-81
2024/03/24 12:30:04;;;;;;;5.07;0.90;;;;;;;19.10;33.32;99895.31;5083507;28;20516;-82
2024/03/24 12:33:02;;;;;;;6.07;1.10;;;;;;;19.19;32.79;99891.00;5083585;28;20698;-82
2024/03/24 12:35:58;;;;;;;3.58;1.02;;;;;;;19.17;33.90;99893.34;5079293;28;20047;-81
2024/03/24 12:38:51;;;;;;;4.72;1.20;;;;;;;19.35;32.98;99885.06;5098658;28;20058;-82
2024/03/24 12:41:45;;;;;;;4.50;0.90;;;;;;;19.48;32.91;99877.22;5098371;28;20066;-81
2024/03/24 12:44:40;;;;;;;2.45;0.93;;;;;;;19.79;32.96;99875.59;5083116;28;20047;-82
2024/03/24 12:47:34;;;;;;;1.00;0.68;;;;;;;19.86;33.54;99870.09;5077835;28;20043;-81
2024/03/24 12:50:32;;;;;;;5.50;1.02;;;;;;;19.95;34.25;99856.66;5082723;28;20047;-82
2024/03/24 12:53:49;;;;;;;4.43;1.02;;;;;;;20.03;32.51;99849.91;5098305;28;20089;-82
2024/03/24 12:56:45;;;;;;;3.20;1.17;;;;;;;19.95;31.71;99846.41;5080084;28;20123;-81
2024/03/24 12:59:37;;;;;;;5.70;1.27;;;;;;;19.47;31.48;99843.34;5082238;28;20425;-82
2024/03/24 13:02:32;;;;;;;1.98;0.65;;;;;;;19.41;31.70;99833.06;5087191;28;20063;-82
2024/03/24 13:05:27;;;;;;;2.20;0.90;;;;;;;19.42;32.98;99829.94;5083704;28;20047;-82
2024/03/24 13:08:22;;;;;;;4.30;1.73;;;;;;;19.07;32.01;99835.47;5102159;28;20043;-83
2024/03/24 13:11:20;;;;;;;4.22;1.00;;;;;;;19.07;31.73;99833.50;5084235;28;20043;-82
2024/03/24 13:14:15;;;;;;;2.10;0.63;;;;;;;19.60;33.01;99810.63;5087532;28;20070;-82
2024/03/24 13:17:19;;;;;;;33.05;1.58;;;;;;;19.76;30.97;99805.44;5100972;28;20047;-81
2024/03/24 13:20:16;;;;;;;2.72;0.90;;;;;;;19.76;31.01;99801.94;5082694;28;20508;-82
2024/03/24 13:23:15;;;;;;;3.75;0.60;;;;;;;19.76;32.07;99816.47;5086141;28;20047;-82
2024/03/24 13:26:10;;;;;;;3.85;1.10;;;;;;;19.68;31.12;99830.69;5096843;28;20046;-81
2024/03/24 13:28:59;;;;;;;164.02;10.63;;;;;;;19.28;29.79;99840.97;5101695;28;20043;-82
2024/03/24 13:31:49;;;;;;;167.30;11.50;;;;;;;18.02;33.78;99831.28;5084978;28;20036;-81
2024/03/24 13:34:40;;;;;;;71.75;3.38;;;;;;;17.81;34.75;99810.75;5085375;28;20048;-81